Terminal Aerodrome Forecast
Issued by NWS Chicago, IL

Home | Current Version | Previous Version | Graphics & Text | Print | Product List | Glossary On
Versions: 1 2 3 4 5 6 7 8 9 10 11 12 13 14 15 16 17 18 19 20 21 22 23 24 25 26 27 28 29 30 31 32 33 34
000
FTUS43 KLOT 242100 AAB
TAFRFD
TAF AMD
KRFD 242159Z 2422/2518 30008KT 5SM BR VCSH OVC009
     FM242300 29011G16KT 3SM -SN BR OVC008
     FM250300 26011G16KT 5SM BR OVC010
     FM251300 23011G17KT P6SM BKN025=

USA.gov is the U.S. government's official web portal to all federal, state and local government web resources and services.